sensor_id;sensor_type;location;lat;lon;timestamp;P1;durP1;ratioP1;P2;durP2;ratioP2
17794;SDS011;9021;50.882;4.326;2022-11-20T00:00:48;37.08;;;26.77;;
17794;SDS011;9021;50.882;4.326;2022-11-20T00:03:13;39.42;;;26.58;;
17794;SDS011;9021;50.882;4.326;2022-11-20T00:05:39;39.50;;;27.77;;
17794;SDS011;9021;50.882;4.326;2022-11-20T00:08:04;36.92;;;26.33;;
17794;SDS011;9021;50.882;4.326;2022-11-20T00:10:30;36.28;;;27.35;;
17794;SDS011;9021;50.882;4.326;2022-11-20T00:12:57;37.03;;;27.45;;
17794;SDS011;9021;50.882;4.326;2022-11-20T00:15:23;41.10;;;28.35;;
17794;SDS011;9021;50.882;4.326;2022-11-20T00:20:15;41.47;;;28.30;;
17794;SDS011;9021;50.882;4.326;2022-11-20T00:22:40;44.22;;;28.42;;
17794;SDS011;9021;50.882;4.326;2022-11-20T00:25:06;43.65;;;28.95;;
17794;SDS011;9021;50.882;4.326;2022-11-20T00:27:32;43.80;;;28.08;;
17794;SDS011;9021;50.882;4.326;2022-11-20T00:29:58;44.92;;;29.25;;
17794;SDS011;9021;50.882;4.326;2022-11-20T00:32:23;42.85;;;29.55;;
17794;SDS011;9021;50.882;4.326;2022-11-20T00:34:49;47.97;;;31.05;;
17794;SDS011;9021;50.882;4.326;2022-11-20T00:37:14;47.42;;;29.92;;
17794;SDS011;9021;50.882;4.326;2022-11-20T00:39:40;47.60;;;30.35;;
17794;SDS011;9021;50.882;4.326;2022-11-20T00:42:06;44.63;;;29.48;;
17794;SDS011;9021;50.882;4.326;2022-11-20T00:44:31;45.75;;;31.38;;
17794;SDS011;9021;50.882;4.326;2022-11-20T00:46:57;50.25;;;32.13;;
17794;SDS011;9021;50.882;4.326;2022-11-20T00:49:22;45.60;;;31.25;;
17794;SDS011;9021;50.882;4.326;2022-11-20T00:51:48;50.13;;;31.67;;
17794;SDS011;9021;50.882;4.326;2022-11-20T00:54:14;43.42;;;32.05;;
17794;SDS011;9021;50.882;4.326;2022-11-20T00:56:39;52.03;;;33.03;;
17794;SDS011;9021;50.882;4.326;2022-11-20T00:59:05;52.15;;;33.50;;
17794;SDS011;9021;50.882;4.326;2022-11-20T01:01:30;48.17;;;32.75;;
17794;SDS011;9021;50.882;4.326;2022-11-20T01:03:57;53.20;;;32.88;;
17794;SDS011;9021;50.882;4.326;2022-11-20T01:06:25;54.00;;;32.00;;
17794;SDS011;9021;50.882;4.326;2022-11-20T01:08:59;47.45;;;31.38;;
17794;SDS011;9021;50.882;4.326;2022-11-20T01:11:31;46.53;;;30.83;;
17794;SDS011;9021;50.882;4.326;2022-11-20T01:13:58;48.05;;;32.03;;
17794;SDS011;9021;50.882;4.326;2022-11-20T01:16:26;46.05;;;30.75;;
17794;SDS011;9021;50.882;4.326;2022-11-20T01:18:56;45.10;;;28.77;;
17794;SDS011;9021;50.882;4.326;2022-11-20T01:21:36;40.58;;;30.42;;
17794;SDS011;9021;50.882;4.326;2022-11-20T01:24:04;40.25;;;28.88;;
17794;SDS011;9021;50.882;4.326;2022-11-20T01:26:33;46.53;;;29.65;;
17794;SDS011;9021;50.882;4.326;2022-11-20T01:29:00;40.45;;;28.80;;
17794;SDS011;9021;50.882;4.326;2022-11-20T01:31:27;40.53;;;30.05;;
17794;SDS011;9021;50.882;4.326;2022-11-20T01:33:56;42.63;;;29.50;;
17794;SDS011;9021;50.882;4.326;2022-11-20T01:36:23;41.58;;;29.88;;
17794;SDS011;9021;50.882;4.326;2022-11-20T01:38:52;45.85;;;28.83;;
17794;SDS011;9021;50.882;4.326;2022-11-20T01:41:19;44.53;;;30.60;;
17794;SDS011;9021;50.882;4.326;2022-11-20T01:44:04;45.55;;;29.65;;
17794;SDS011;9021;50.882;4.326;2022-11-20T01:46:31;45.05;;;30.35;;
17794;SDS011;9021;50.882;4.326;2022-11-20T01:51:59;48.00;;;30.15;;
17794;SDS011;9021;50.882;4.326;2022-11-20T01:54:39;45.90;;;29.13;;
17794;SDS011;9021;50.882;4.326;2022-11-20T01:57:33;42.05;;;30.00;;
17794;SDS011;9021;50.882;4.326;2022-11-20T02:00:05;49.88;;;30.63;;
17794;SDS011;9021;50.882;4.326;2022-11-20T02:02:33;44.75;;;30.73;;
17794;SDS011;9021;50.882;4.326;2022-11-20T02:05:12;42.58;;;28.73;;
17794;SDS011;9021;50.882;4.326;2022-11-20T02:07:46;43.55;;;30.08;;
17794;SDS011;9021;50.882;4.326;2022-11-20T02:10:14;38.35;;;29.00;;
17794;SDS011;9021;50.882;4.326;2022-11-20T02:12:40;44.40;;;29.35;;
17794;SDS011;9021;50.882;4.326;2022-11-20T02:15:24;45.13;;;31.00;;
17794;SDS011;9021;50.882;4.326;2022-11-20T02:17:50;38.53;;;30.02;;
17794;SDS011;9021;50.882;4.326;2022-11-20T02:20:16;46.03;;;30.90;;
17794;SDS011;9021;50.882;4.326;2022-11-20T02:22:46;43.05;;;31.38;;
17794;SDS011;9021;50.882;4.326;2022-11-20T02:25:19;40.05;;;29.80;;
17794;SDS011;9021;50.882;4.326;2022-11-20T02:30:11;45.75;;;30.33;;
17794;SDS011;9021;50.882;4.326;2022-11-20T02:32:38;44.08;;;30.73;;
17794;SDS011;9021;50.882;4.326;2022-11-20T02:35:08;46.58;;;30.73;;
17794;SDS011;9021;50.882;4.326;2022-11-20T02:37:55;43.47;;;30.92;;
17794;SDS011;9021;50.882;4.326;2022-11-20T02:40:23;44.50;;;30.42;;
17794;SDS011;9021;50.882;4.326;2022-11-20T02:42:52;45.15;;;31.17;;
17794;SDS011;9021;50.882;4.326;2022-11-20T02:45:18;43.83;;;31.77;;
17794;SDS011;9021;50.882;4.326;2022-11-20T02:47:44;42.33;;;30.35;;
17794;SDS011;9021;50.882;4.326;2022-11-20T02:50:10;45.05;;;30.63;;
17794;SDS011;9021;50.882;4.326;2022-11-20T02:52:35;40.78;;;30.63;;
17794;SDS011;9021;50.882;4.326;2022-11-20T02:55:01;42.63;;;29.83;;
17794;SDS011;9021;50.882;4.326;2022-11-20T02:57:26;42.47;;;29.73;;
17794;SDS011;9021;50.882;4.326;2022-11-20T02:59:52;46.40;;;30.73;;
17794;SDS011;9021;50.882;4.326;2022-11-20T03:02:18;42.38;;;30.38;;
17794;SDS011;9021;50.882;4.326;2022-11-20T03:04:44;43.97;;;30.10;;
17794;SDS011;9021;50.882;4.326;2022-11-20T03:07:09;38.30;;;28.55;;
17794;SDS011;9021;50.882;4.326;2022-11-20T03:09:35;42.72;;;28.38;;
17794;SDS011;9021;50.882;4.326;2022-11-20T03:12:01;46.67;;;29.48;;
17794;SDS011;9021;50.882;4.326;2022-11-20T03:14:26;41.08;;;28.63;;
17794;SDS011;9021;50.882;4.326;2022-11-20T03:16:52;43.60;;;29.58;;
17794;SDS011;9021;50.882;4.326;2022-11-20T03:19:17;40.50;;;29.40;;
17794;SDS011;9021;50.882;4.326;2022-11-20T03:21:43;47.13;;;29.58;;
17794;SDS011;9021;50.882;4.326;2022-11-20T03:24:09;43.80;;;30.13;;
17794;SDS011;9021;50.882;4.326;2022-11-20T03:26:34;44.00;;;29.73;;
17794;SDS011;9021;50.882;4.326;2022-11-20T03:29:01;42.65;;;28.50;;
17794;SDS011;9021;50.882;4.326;2022-11-20T03:31:29;44.65;;;29.33;;
17794;SDS011;9021;50.882;4.326;2022-11-20T03:34:00;40.78;;;27.88;;
17794;SDS011;9021;50.882;4.326;2022-11-20T03:38:52;41.03;;;27.20;;
17794;SDS011;9021;50.882;4.326;2022-11-20T03:41:20;39.72;;;27.55;;
17794;SDS011;9021;50.882;4.326;2022-11-20T03:43:48;40.75;;;27.90;;
17794;SDS011;9021;50.882;4.326;2022-11-20T03:46:15;41.97;;;28.25;;
17794;SDS011;9021;50.882;4.326;2022-11-20T03:48:41;42.58;;;29.38;;
17794;SDS011;9021;50.882;4.326;2022-11-20T03:51:11;41.97;;;28.92;;
17794;SDS011;9021;50.882;4.326;2022-11-20T03:53:41;42.30;;;27.20;;
17794;SDS011;9021;50.882;4.326;2022-11-20T03:56:08;37.78;;;26.42;;
17794;SDS011;9021;50.882;4.326;2022-11-20T03:58:35;40.47;;;26.92;;
17794;SDS011;9021;50.882;4.326;2022-11-20T04:01:09;38.95;;;26.48;;
17794;SDS011;9021;50.882;4.326;2022-11-20T04:03:37;37.85;;;26.27;;
17794;SDS011;9021;50.882;4.326;2022-11-20T04:06:08;38.50;;;26.25;;
17794;SDS011;9021;50.882;4.326;2022-11-20T04:08:36;39.70;;;27.08;;
17794;SDS011;9021;50.882;4.326;2022-11-20T04:13:39;38.78;;;26.23;;
17794;SDS011;9021;50.882;4.326;2022-11-20T04:16:08;40.78;;;27.52;;
17794;SDS011;9021;50.882;4.326;2022-11-20T04:18:34;44.38;;;27.48;;
17794;SDS011;9021;50.882;4.326;2022-11-20T04:23:26;41.13;;;26.63;;
17794;SDS011;9021;50.882;4.326;2022-11-20T04:25:52;39.67;;;26.20;;
17794;SDS011;9021;50.882;4.326;2022-11-20T04:28:18;40.83;;;27.38;;
17794;SDS011;9021;50.882;4.326;2022-11-20T04:30:44;37.55;;;25.48;;
17794;SDS011;9021;50.882;4.326;2022-11-20T04:33:09;36.25;;;26.15;;
17794;SDS011;9021;50.882;4.326;2022-11-20T04:35:35;45.72;;;28.30;;
17794;SDS011;9021;50.882;4.326;2022-11-20T04:38:02;43.58;;;28.52;;
17794;SDS011;9021;50.882;4.326;2022-11-20T04:40:28;45.45;;;28.08;;
17794;SDS011;9021;50.882;4.326;2022-11-20T04:42:54;43.92;;;28.50;;
17794;SDS011;9021;50.882;4.326;2022-11-20T04:45:20;49.17;;;29.40;;
17794;SDS011;9021;50.882;4.326;2022-11-20T04:47:46;49.85;;;29.60;;
17794;SDS011;9021;50.882;4.326;2022-11-20T04:50:12;53.15;;;30.55;;
17794;SDS011;9021;50.882;4.326;2022-11-20T04:52:38;58.38;;;31.60;;
17794;SDS011;9021;50.882;4.326;2022-11-20T04:55:03;54.20;;;30.52;;
17794;SDS011;9021;50.882;4.326;2022-11-20T04:57:29;48.92;;;29.42;;
17794;SDS011;9021;50.882;4.326;2022-11-20T04:59:55;51.63;;;30.35;;
17794;SDS011;9021;50.882;4.326;2022-11-20T05:02:20;52.60;;;29.98;;
17794;SDS011;9021;50.882;4.326;2022-11-20T05:04:46;50.53;;;30.15;;
17794;SDS011;9021;50.882;4.326;2022-11-20T05:07:12;54.08;;;30.95;;
17794;SDS011;9021;50.882;4.326;2022-11-20T05:09:38;51.35;;;30.55;;
17794;SDS011;9021;50.882;4.326;2022-11-20T05:12:03;51.78;;;30.75;;
17794;SDS011;9021;50.882;4.326;2022-11-20T05:14:29;54.13;;;31.17;;
17794;SDS011;9021;50.882;4.326;2022-11-20T05:16:54;54.03;;;30.58;;
17794;SDS011;9021;50.882;4.326;2022-11-20T05:19:20;51.47;;;29.55;;
17794;SDS011;9021;50.882;4.326;2022-11-20T05:21:46;53.60;;;31.17;;
17794;SDS011;9021;50.882;4.326;2022-11-20T05:24:12;53.40;;;30.95;;
17794;SDS011;9021;50.882;4.326;2022-11-20T05:26:37;49.83;;;29.75;;
17794;SDS011;9021;50.882;4.326;2022-11-20T05:29:03;53.35;;;31.40;;
17794;SDS011;9021;50.882;4.326;2022-11-20T05:31:29;55.78;;;31.25;;
17794;SDS011;9021;50.882;4.326;2022-11-20T05:33:55;53.28;;;31.02;;
17794;SDS011;9021;50.882;4.326;2022-11-20T05:36:21;57.33;;;31.00;;
17794;SDS011;9021;50.882;4.326;2022-11-20T05:38:47;52.38;;;31.70;;
17794;SDS011;9021;50.882;4.326;2022-11-20T05:41:13;52.83;;;29.83;;
17794;SDS011;9021;50.882;4.326;2022-11-20T05:43:41;49.88;;;30.77;;
17794;SDS011;9021;50.882;4.326;2022-11-20T05:46:09;61.22;;;33.08;;
17794;SDS011;9021;50.882;4.326;2022-11-20T05:48:36;55.35;;;31.70;;
17794;SDS011;9021;50.882;4.326;2022-11-20T05:51:03;56.42;;;31.92;;
17794;SDS011;9021;50.882;4.326;2022-11-20T05:53:31;60.75;;;34.25;;
17794;SDS011;9021;50.882;4.326;2022-11-20T05:55:58;58.63;;;32.38;;
17794;SDS011;9021;50.882;4.326;2022-11-20T05:58:28;55.47;;;31.92;;
17794;SDS011;9021;50.882;4.326;2022-11-20T06:00:54;61.05;;;32.40;;
17794;SDS011;9021;50.882;4.326;2022-11-20T06:03:20;57.60;;;32.63;;
17794;SDS011;9021;50.882;4.326;2022-11-20T06:05:45;58.33;;;32.17;;
17794;SDS011;9021;50.882;4.326;2022-11-20T06:08:11;57.80;;;32.28;;
17794;SDS011;9021;50.882;4.326;2022-11-20T06:10:37;56.47;;;30.90;;
17794;SDS011;9021;50.882;4.326;2022-11-20T06:13:02;59.28;;;32.22;;
17794;SDS011;9021;50.882;4.326;2022-11-20T06:15:28;60.67;;;32.03;;
17794;SDS011;9021;50.882;4.326;2022-11-20T06:17:54;63.50;;;33.30;;
17794;SDS011;9021;50.882;4.326;2022-11-20T06:20:21;59.28;;;32.65;;
17794;SDS011;9021;50.882;4.326;2022-11-20T06:22:47;64.72;;;33.80;;
17794;SDS011;9021;50.882;4.326;2022-11-20T06:25:12;62.53;;;33.33;;
17794;SDS011;9021;50.882;4.326;2022-11-20T06:27:38;64.95;;;33.75;;
17794;SDS011;9021;50.882;4.326;2022-11-20T06:30:04;66.68;;;33.75;;
17794;SDS011;9021;50.882;4.326;2022-11-20T06:32:30;60.78;;;32.55;;
17794;SDS011;9021;50.882;4.326;2022-11-20T06:34:56;67.93;;;33.33;;
17794;SDS011;9021;50.882;4.326;2022-11-20T06:37:21;61.97;;;33.30;;
17794;SDS011;9021;50.882;4.326;2022-11-20T06:39:47;65.55;;;33.45;;
17794;SDS011;9021;50.882;4.326;2022-11-20T06:42:13;65.03;;;33.45;;
17794;SDS011;9021;50.882;4.326;2022-11-20T06:44:39;64.60;;;33.22;;
17794;SDS011;9021;50.882;4.326;2022-11-20T06:47:04;61.78;;;33.50;;
17794;SDS011;9021;50.882;4.326;2022-11-20T06:49:30;63.38;;;33.22;;
17794;SDS011;9021;50.882;4.326;2022-11-20T06:51:55;63.90;;;33.63;;
17794;SDS011;9021;50.882;4.326;2022-11-20T06:54:21;64.25;;;32.55;;
17794;SDS011;9021;50.882;4.326;2022-11-20T06:56:47;62.33;;;31.55;;
17794;SDS011;9021;50.882;4.326;2022-11-20T06:59:13;62.70;;;33.13;;
17794;SDS011;9021;50.882;4.326;2022-11-20T07:01:38;59.92;;;33.45;;
17794;SDS011;9021;50.882;4.326;2022-11-20T07:04:04;64.47;;;33.28;;
17794;SDS011;9021;50.882;4.326;2022-11-20T07:06:32;60.88;;;32.92;;
17794;SDS011;9021;50.882;4.326;2022-11-20T07:08:57;63.25;;;31.95;;
17794;SDS011;9021;50.882;4.326;2022-11-20T07:11:23;59.88;;;31.38;;
17794;SDS011;9021;50.882;4.326;2022-11-20T07:13:49;55.45;;;30.95;;
17794;SDS011;9021;50.882;4.326;2022-11-20T07:16:15;58.72;;;32.10;;
17794;SDS011;9021;50.882;4.326;2022-11-20T07:18:40;70.35;;;31.20;;
17794;SDS011;9021;50.882;4.326;2022-11-20T07:21:07;55.95;;;32.22;;
17794;SDS011;9021;50.882;4.326;2022-11-20T07:23:34;56.63;;;31.85;;
17794;SDS011;9021;50.882;4.326;2022-11-20T07:26:04;58.42;;;30.52;;
17794;SDS011;9021;50.882;4.326;2022-11-20T07:28:30;58.83;;;31.83;;
17794;SDS011;9021;50.882;4.326;2022-11-20T07:30:56;51.08;;;30.25;;
17794;SDS011;9021;50.882;4.326;2022-11-20T07:33:22;57.28;;;30.90;;
17794;SDS011;9021;50.882;4.326;2022-11-20T07:35:48;52.33;;;30.63;;
17794;SDS011;9021;50.882;4.326;2022-11-20T07:38:13;55.53;;;31.08;;
17794;SDS011;9021;50.882;4.326;2022-11-20T07:40:39;54.53;;;30.33;;
17794;SDS011;9021;50.882;4.326;2022-11-20T07:43:05;61.97;;;31.23;;
17794;SDS011;9021;50.882;4.326;2022-11-20T07:45:30;51.80;;;30.55;;
17794;SDS011;9021;50.882;4.326;2022-11-20T07:47:56;48.47;;;27.98;;
17794;SDS011;9021;50.882;4.326;2022-11-20T07:50:22;52.15;;;28.33;;
17794;SDS011;9021;50.882;4.326;2022-11-20T07:52:47;54.67;;;28.67;;
17794;SDS011;9021;50.882;4.326;2022-11-20T07:55:13;55.15;;;29.65;;
17794;SDS011;9021;50.882;4.326;2022-11-20T07:57:39;53.70;;;29.98;;
17794;SDS011;9021;50.882;4.326;2022-11-20T08:00:06;53.78;;;28.45;;
17794;SDS011;9021;50.882;4.326;2022-11-20T08:02:39;52.45;;;28.88;;
17794;SDS011;9021;50.882;4.326;2022-11-20T08:05:06;48.80;;;27.50;;
17794;SDS011;9021;50.882;4.326;2022-11-20T08:07:37;56.00;;;28.92;;
17794;SDS011;9021;50.882;4.326;2022-11-20T08:10:03;59.50;;;28.13;;
17794;SDS011;9021;50.882;4.326;2022-11-20T08:15:13;58.45;;;27.25;;
17794;SDS011;9021;50.882;4.326;2022-11-20T08:17:39;58.65;;;29.10;;
17794;SDS011;9021;50.882;4.326;2022-11-20T08:20:05;57.45;;;29.08;;
17794;SDS011;9021;50.882;4.326;2022-11-20T08:22:30;57.78;;;28.70;;
17794;SDS011;9021;50.882;4.326;2022-11-20T08:24:56;52.58;;;27.25;;
17794;SDS011;9021;50.882;4.326;2022-11-20T08:27:22;56.90;;;28.73;;
17794;SDS011;9021;50.882;4.326;2022-11-20T08:29:48;54.35;;;27.85;;
17794;SDS011;9021;50.882;4.326;2022-11-20T08:32:13;53.92;;;27.70;;
17794;SDS011;9021;50.882;4.326;2022-11-20T08:34:39;55.00;;;27.80;;
17794;SDS011;9021;50.882;4.326;2022-11-20T08:37:05;53.08;;;27.17;;
17794;SDS011;9021;50.882;4.326;2022-11-20T08:39:30;49.88;;;27.02;;
17794;SDS011;9021;50.882;4.326;2022-11-20T08:41:56;52.40;;;27.90;;
17794;SDS011;9021;50.882;4.326;2022-11-20T08:44:21;51.95;;;27.40;;
17794;SDS011;9021;50.882;4.326;2022-11-20T08:46:47;53.83;;;27.92;;
17794;SDS011;9021;50.882;4.326;2022-11-20T08:49:13;58.50;;;29.30;;
17794;SDS011;9021;50.882;4.326;2022-11-20T08:51:39;55.60;;;28.98;;
17794;SDS011;9021;50.882;4.326;2022-11-20T08:54:06;57.97;;;28.40;;
17794;SDS011;9021;50.882;4.326;2022-11-20T08:56:32;50.55;;;26.73;;
17794;SDS011;9021;50.882;4.326;2022-11-20T08:58:58;55.13;;;28.73;;
17794;SDS011;9021;50.882;4.326;2022-11-20T09:01:24;54.17;;;28.95;;
17794;SDS011;9021;50.882;4.326;2022-11-20T09:03:51;57.30;;;28.73;;
17794;SDS011;9021;50.882;4.326;2022-11-20T09:06:17;55.35;;;28.38;;
17794;SDS011;9021;50.882;4.326;2022-11-20T09:08:43;55.20;;;28.35;;
17794;SDS011;9021;50.882;4.326;2022-11-20T09:11:09;55.67;;;27.50;;
17794;SDS011;9021;50.882;4.326;2022-11-20T09:13:35;48.92;;;27.40;;
17794;SDS011;9021;50.882;4.326;2022-11-20T09:18:28;47.60;;;25.75;;
17794;SDS011;9021;50.882;4.326;2022-11-20T09:20:59;45.95;;;25.85;;
17794;SDS011;9021;50.882;4.326;2022-11-20T09:23:26;45.60;;;25.52;;
17794;SDS011;9021;50.882;4.326;2022-11-20T09:25:56;52.65;;;26.83;;
17794;SDS011;9021;50.882;4.326;2022-11-20T09:28:24;49.33;;;25.35;;
17794;SDS011;9021;50.882;4.326;2022-11-20T09:30:51;45.97;;;25.23;;
17794;SDS011;9021;50.882;4.326;2022-11-20T09:33:16;46.25;;;24.63;;
17794;SDS011;9021;50.882;4.326;2022-11-20T09:35:42;44.15;;;25.92;;
17794;SDS011;9021;50.882;4.326;2022-11-20T09:40:36;52.03;;;25.17;;
17794;SDS011;9021;50.882;4.326;2022-11-20T09:54:18;39.58;;;22.63;;
17794;SDS011;9021;50.882;4.326;2022-11-20T09:56:47;35.58;;;22.08;;
17794;SDS011;9021;50.882;4.326;2022-11-20T09:59:29;32.00;;;20.70;;
17794;SDS011;9021;50.882;4.326;2022-11-20T10:02:08;32.65;;;20.58;;
17794;SDS011;9021;50.882;4.326;2022-11-20T10:04:50;33.67;;;20.83;;
17794;SDS011;9021;50.882;4.326;2022-11-20T10:07:37;34.55;;;20.40;;
17794;SDS011;9021;50.882;4.326;2022-11-20T10:11:12;31.88;;;20.13;;
17794;SDS011;9021;50.882;4.326;2022-11-20T10:16:15;29.15;;;18.75;;
17794;SDS011;9021;50.882;4.326;2022-11-20T10:18:58;30.33;;;17.38;;
17794;SDS011;9021;50.882;4.326;2022-11-20T10:30:07;25.30;;;16.38;;
17794;SDS011;9021;50.882;4.326;2022-11-20T10:32:36;23.05;;;14.70;;
17794;SDS011;9021;50.882;4.326;2022-11-20T10:35:20;20.25;;;13.80;;
17794;SDS011;9021;50.882;4.326;2022-11-20T10:37:53;20.67;;;13.88;;
17794;SDS011;9021;50.882;4.326;2022-11-20T10:40:26;19.80;;;11.63;;
17794;SDS011;9021;50.882;4.326;2022-11-20T10:43:02;16.63;;;11.10;;
17794;SDS011;9021;50.882;4.326;2022-11-20T10:45:50;15.30;;;8.98;;
17794;SDS011;9021;50.882;4.326;2022-11-20T10:48:23;15.10;;;8.40;;
17794;SDS011;9021;50.882;4.326;2022-11-20T10:51:11;12.73;;;6.78;;
17794;SDS011;9021;50.882;4.326;2022-11-20T10:53:53;16.77;;;7.88;;
17794;SDS011;9021;50.882;4.326;2022-11-20T10:56:41;13.70;;;6.88;;
17794;SDS011;9021;50.882;4.326;2022-11-20T11:02:17;12.48;;;6.40;;
17794;SDS011;9021;50.882;4.326;2022-11-20T11:04:54;12.70;;;6.18;;
17794;SDS011;9021;50.882;4.326;2022-11-20T11:07:21;9.55;;;5.30;;
17794;SDS011;9021;50.882;4.326;2022-11-20T11:09:54;9.60;;;5.47;;
17794;SDS011;9021;50.882;4.326;2022-11-20T11:12:24;10.80;;;5.20;;
17794;SDS011;9021;50.882;4.326;2022-11-20T11:14:53;10.25;;;5.53;;
17794;SDS011;9021;50.882;4.326;2022-11-20T11:17:21;9.02;;;5.30;;
17794;SDS011;9021;50.882;4.326;2022-11-20T11:19:58;11.50;;;5.40;;
17794;SDS011;9021;50.882;4.326;2022-11-20T11:22:24;8.15;;;5.30;;
17794;SDS011;9021;50.882;4.326;2022-11-20T11:24:52;16.90;;;6.13;;
17794;SDS011;9021;50.882;4.326;2022-11-20T11:27:18;13.60;;;5.40;;
17794;SDS011;9021;50.882;4.326;2022-11-20T11:29:45;9.32;;;4.78;;
17794;SDS011;9021;50.882;4.326;2022-11-20T11:34:38;11.52;;;5.25;;
17794;SDS011;9021;50.882;4.326;2022-11-20T11:37:03;13.85;;;5.10;;
17794;SDS011;9021;50.882;4.326;2022-11-20T11:39:35;14.77;;;4.63;;
17794;SDS011;9021;50.882;4.326;2022-11-20T11:42:05;10.95;;;4.82;;
17794;SDS011;9021;50.882;4.326;2022-11-20T11:44:37;11.38;;;4.82;;
17794;SDS011;9021;50.882;4.326;2022-11-20T11:47:32;10.30;;;5.05;;
17794;SDS011;9021;50.882;4.326;2022-11-20T11:53:07;9.20;;;4.57;;
17794;SDS011;9021;50.882;4.326;2022-11-20T12:00:36;8.63;;;4.65;;
17794;SDS011;9021;50.882;4.326;2022-11-20T12:03:14;7.60;;;4.07;;
17794;SDS011;9021;50.882;4.326;2022-11-20T12:05:45;10.98;;;3.92;;
17794;SDS011;9021;50.882;4.326;2022-11-20T12:08:31;7.72;;;3.55;;
17794;SDS011;9021;50.882;4.326;2022-11-20T12:11:11;10.18;;;4.25;;
17794;SDS011;9021;50.882;4.326;2022-11-20T12:14:00;10.25;;;4.05;;
17794;SDS011;9021;50.882;4.326;2022-11-20T12:16:36;9.60;;;4.07;;
17794;SDS011;9021;50.882;4.326;2022-11-20T12:19:04;7.40;;;3.70;;
17794;SDS011;9021;50.882;4.326;2022-11-20T12:21:49;6.93;;;3.65;;
17794;SDS011;9021;50.882;4.326;2022-11-20T12:30:10;12.07;;;6.43;;
17794;SDS011;9021;50.882;4.326;2022-11-20T12:41:01;7.43;;;4.05;;
17794;SDS011;9021;50.882;4.326;2022-11-20T12:58:10;11.05;;;5.88;;
17794;SDS011;9021;50.882;4.326;2022-11-20T13:03:37;10.10;;;4.57;;
17794;SDS011;9021;50.882;4.326;2022-11-20T13:06:18;9.50;;;4.32;;
17794;SDS011;9021;50.882;4.326;2022-11-20T13:08:53;9.68;;;4.63;;
17794;SDS011;9021;50.882;4.326;2022-11-20T13:19:30;9.88;;;6.05;;
17794;SDS011;9021;50.882;4.326;2022-11-20T13:21:57;12.60;;;5.78;;
17794;SDS011;9021;50.882;4.326;2022-11-20T13:24:26;6.97;;;4.05;;
17794;SDS011;9021;50.882;4.326;2022-11-20T13:29:33;8.35;;;4.03;;
17794;SDS011;9021;50.882;4.326;2022-11-20T13:32:12;6.90;;;3.42;;
17794;SDS011;9021;50.882;4.326;2022-11-20T13:34:53;7.07;;;3.70;;
17794;SDS011;9021;50.882;4.326;2022-11-20T13:37:33;6.13;;;3.90;;
17794;SDS011;9021;50.882;4.326;2022-11-20T13:42:34;6.80;;;4.13;;
17794;SDS011;9021;50.882;4.326;2022-11-20T13:45:08;6.05;;;4.43;;
17794;SDS011;9021;50.882;4.326;2022-11-20T13:47:48;8.43;;;3.95;;
17794;SDS011;9021;50.882;4.326;2022-11-20T13:50:16;6.03;;;3.95;;
17794;SDS011;9021;50.882;4.326;2022-11-20T13:55:40;7.72;;;4.03;;
17794;SDS011;9021;50.882;4.326;2022-11-20T13:58:53;5.28;;;3.40;;
17794;SDS011;9021;50.882;4.326;2022-11-20T14:01:29;3.67;;;2.95;;
17794;SDS011;9021;50.882;4.326;2022-11-20T14:03:59;3.58;;;2.65;;
17794;SDS011;9021;50.882;4.326;2022-11-20T14:06:33;6.25;;;3.33;;
17794;SDS011;9021;50.882;4.326;2022-11-20T14:09:04;5.25;;;2.80;;
17794;SDS011;9021;50.882;4.326;2022-11-20T14:11:30;6.03;;;3.85;;
17794;SDS011;9021;50.882;4.326;2022-11-20T14:13:57;4.93;;;3.55;;
17794;SDS011;9021;50.882;4.326;2022-11-20T14:16:23;5.40;;;3.13;;
17794;SDS011;9021;50.882;4.326;2022-11-20T14:18:50;5.13;;;3.15;;
17794;SDS011;9021;50.882;4.326;2022-11-20T14:21:26;5.07;;;3.55;;
17794;SDS011;9021;50.882;4.326;2022-11-20T14:24:02;4.72;;;2.83;;
17794;SDS011;9021;50.882;4.326;2022-11-20T14:26:31;4.75;;;3.10;;
17794;SDS011;9021;50.882;4.326;2022-11-20T14:28:57;3.88;;;2.90;;
17794;SDS011;9021;50.882;4.326;2022-11-20T14:33:52;4.13;;;3.10;;
17794;SDS011;9021;50.882;4.326;2022-11-20T14:36:20;7.60;;;4.10;;
17794;SDS011;9021;50.882;4.326;2022-11-20T14:38:48;6.90;;;3.10;;
17794;SDS011;9021;50.882;4.326;2022-11-20T14:41:19;5.28;;;3.33;;
17794;SDS011;9021;50.882;4.326;2022-11-20T14:43:57;3.88;;;3.10;;
17794;SDS011;9021;50.882;4.326;2022-11-20T14:46:24;4.15;;;3.20;;
17794;SDS011;9021;50.882;4.326;2022-11-20T14:48:55;6.18;;;3.67;;
17794;SDS011;9021;50.882;4.326;2022-11-20T14:54:15;5.88;;;3.60;;
17794;SDS011;9021;50.882;4.326;2022-11-20T14:56:53;3.67;;;2.78;;
17794;SDS011;9021;50.882;4.326;2022-11-20T14:59:27;4.68;;;2.67;;
17794;SDS011;9021;50.882;4.326;2022-11-20T15:02:05;4.72;;;3.35;;
17794;SDS011;9021;50.882;4.326;2022-11-20T15:04:43;4.10;;;3.10;;
17794;SDS011;9021;50.882;4.326;2022-11-20T15:07:22;5.85;;;3.00;;
17794;SDS011;9021;50.882;4.326;2022-11-20T15:09:59;3.70;;;2.72;;
17794;SDS011;9021;50.882;4.326;2022-11-20T15:12:25;4.32;;;2.78;;
17794;SDS011;9021;50.882;4.326;2022-11-20T15:14:51;4.75;;;2.92;;
17794;SDS011;9021;50.882;4.326;2022-11-20T15:17:16;4.88;;;3.33;;
17794;SDS011;9021;50.882;4.326;2022-11-20T15:19:42;5.13;;;3.60;;
17794;SDS011;9021;50.882;4.326;2022-11-20T15:22:09;7.00;;;3.72;;
17794;SDS011;9021;50.882;4.326;2022-11-20T15:24:44;5.40;;;4.50;;
17794;SDS011;9021;50.882;4.326;2022-11-20T15:27:10;7.32;;;3.72;;
17794;SDS011;9021;50.882;4.326;2022-11-20T15:32:01;7.95;;;3.63;;
17794;SDS011;9021;50.882;4.326;2022-11-20T15:34:28;6.22;;;3.08;;
17794;SDS011;9021;50.882;4.326;2022-11-20T15:36:53;5.32;;;3.13;;
17794;SDS011;9021;50.882;4.326;2022-11-20T15:39:19;8.70;;;3.67;;
17794;SDS011;9021;50.882;4.326;2022-11-20T15:41:45;5.00;;;3.60;;
17794;SDS011;9021;50.882;4.326;2022-11-20T15:44:11;7.80;;;3.47;;
17794;SDS011;9021;50.882;4.326;2022-11-20T15:46:37;10.27;;;3.65;;
17794;SDS011;9021;50.882;4.326;2022-11-20T15:49:10;7.88;;;3.83;;
17794;SDS011;9021;50.882;4.326;2022-11-20T15:51:38;8.85;;;3.55;;
17794;SDS011;9021;50.882;4.326;2022-11-20T15:54:16;14.75;;;3.88;;
17794;SDS011;9021;50.882;4.326;2022-11-20T15:56:47;9.60;;;3.40;;
17794;SDS011;9021;50.882;4.326;2022-11-20T15:59:14;7.57;;;3.40;;
17794;SDS011;9021;50.882;4.326;2022-11-20T16:01:40;14.18;;;3.88;;
17794;SDS011;9021;50.882;4.326;2022-11-20T16:04:10;7.00;;;3.00;;
17794;SDS011;9021;50.882;4.326;2022-11-20T16:06:37;10.32;;;3.83;;
17794;SDS011;9021;50.882;4.326;2022-11-20T16:09:03;8.50;;;2.85;;
17794;SDS011;9021;50.882;4.326;2022-11-20T16:11:29;10.60;;;3.53;;
17794;SDS011;9021;50.882;4.326;2022-11-20T16:13:55;13.43;;;4.90;;
17794;SDS011;9021;50.882;4.326;2022-11-20T16:16:39;14.18;;;3.33;;
17794;SDS011;9021;50.882;4.326;2022-11-20T16:19:09;13.57;;;3.10;;
17794;SDS011;9021;50.882;4.326;2022-11-20T16:21:39;16.08;;;3.70;;
17794;SDS011;9021;50.882;4.326;2022-11-20T16:24:06;18.20;;;3.28;;
17794;SDS011;9021;50.882;4.326;2022-11-20T16:26:34;11.00;;;3.20;;
17794;SDS011;9021;50.882;4.326;2022-11-20T16:29:00;14.45;;;2.95;;
17794;SDS011;9021;50.882;4.326;2022-11-20T16:31:27;16.63;;;3.10;;
17794;SDS011;9021;50.882;4.326;2022-11-20T16:33:54;11.73;;;3.67;;
17794;SDS011;9021;50.882;4.326;2022-11-20T16:36:21;13.88;;;3.40;;
17794;SDS011;9021;50.882;4.326;2022-11-20T16:38:55;16.45;;;3.22;;
17794;SDS011;9021;50.882;4.326;2022-11-20T16:41:30;20.10;;;5.28;;
17794;SDS011;9021;50.882;4.326;2022-11-20T16:43:58;23.95;;;7.90;;
17794;SDS011;9021;50.882;4.326;2022-11-20T16:46:29;22.00;;;4.60;;